Terminal Aerodrome Forecast
Issued by NWS Sterling, VA

Current Version | Previous Version | Text Only | Print | Product List | Glossary On
Versions: 1 2 3 4 5 6 7 8 9 10 11 12 13 14
966
FTUS41 KLWX 211136
TAFMRB
TAF
KMRB 211136Z 2112/2212 VRB03KT 5SM BR FEW040 FEW250
     FM211300 00000KT P6SM FEW040 FEW250
     FM220600 00000KT 4SM BR FEW040 FEW250
     FM220900 VRB03KT 2SM BR FEW040 FEW250=

USA.gov is the U.S. government's official web portal to all federal, state and local government web resources and services.